sensor_id;sensor_type;location;lat;lon;timestamp;P1;durP1;ratioP1;P2;durP2;ratioP2
49900;SDS011;35789;48.414;12.768;2022-10-19T01:45:03;52.2;;;10.8;;
49900;SDS011;35789;48.414;12.768;2022-10-19T01:50:04;52.2;;;10.8;;
49900;SDS011;35789;48.414;12.768;2022-10-19T01:55:02;32.4;;;9.9;;
49900;SDS011;35789;48.414;12.768;2022-10-19T02:00:00;32.4;;;9.9;;
49900;SDS011;35789;48.414;12.768;2022-10-19T02:05:01;32.4;;;9.9;;
49900;SDS011;35789;48.414;12.768;2022-10-19T02:10:00;32.4;;;9.9;;
49900;SDS011;35789;48.414;12.768;2022-10-19T02:15:03;32.4;;;9.9;;
49900;SDS011;35789;48.414;12.768;2022-10-19T02:20:00;32.4;;;9.9;;
49900;SDS011;35789;48.414;12.768;2022-10-19T02:25:00;23.1;;;9.7;;
49900;SDS011;35789;48.414;12.768;2022-10-19T02:30:00;23.1;;;9.7;;
49900;SDS011;35789;48.414;12.768;2022-10-19T02:35:00;23.1;;;9.7;;
49900;SDS011;35789;48.414;12.768;2022-10-19T02:40:00;23.1;;;9.7;;
49900;SDS011;35789;48.414;12.768;2022-10-19T02:45:06;23.1;;;9.7;;
49900;SDS011;35789;48.414;12.768;2022-10-19T02:50:00;23.1;;;9.7;;
49900;SDS011;35789;48.414;12.768;2022-10-19T02:55:00;13.1;;;8.5;;
49900;SDS011;35789;48.414;12.768;2022-10-19T03:00:00;13.1;;;8.5;;
49900;SDS011;35789;48.414;12.768;2022-10-19T03:05:00;13.1;;;8.5;;
49900;SDS011;35789;48.414;12.768;2022-10-19T03:10:00;13.1;;;8.5;;
49900;SDS011;35789;48.414;12.768;2022-10-19T03:15:00;13.1;;;8.5;;
49900;SDS011;35789;48.414;12.768;2022-10-19T03:20:00;13.1;;;8.5;;
49900;SDS011;35789;48.414;12.768;2022-10-19T03:25:00;11.5;;;8.6;;
49900;SDS011;35789;48.414;12.768;2022-10-19T03:30:00;11.5;;;8.6;;
49900;SDS011;35789;48.414;12.768;2022-10-19T03:35:00;11.5;;;8.6;;
49900;SDS011;35789;48.414;12.768;2022-10-19T03:40:00;11.5;;;8.6;;
49900;SDS011;35789;48.414;12.768;2022-10-19T03:45:00;11.5;;;8.6;;
49900;SDS011;35789;48.414;12.768;2022-10-19T03:50:00;11.5;;;8.6;;
49900;SDS011;35789;48.414;12.768;2022-10-19T03:55:00;14.0;;;8.2;;
49900;SDS011;35789;48.414;12.768;2022-10-19T04:00:00;14.0;;;8.2;;
49900;SDS011;35789;48.414;12.768;2022-10-19T04:05:00;14.0;;;8.2;;
49900;SDS011;35789;48.414;12.768;2022-10-19T04:10:00;14.0;;;8.2;;
49900;SDS011;35789;48.414;12.768;2022-10-19T04:15:00;14.0;;;8.2;;
49900;SDS011;35789;48.414;12.768;2022-10-19T04:20:00;14.0;;;8.2;;
49900;SDS011;35789;48.414;12.768;2022-10-19T04:25:00;13.8;;;9.4;;
49900;SDS011;35789;48.414;12.768;2022-10-19T04:30:00;13.8;;;9.4;;
49900;SDS011;35789;48.414;12.768;2022-10-19T04:35:00;13.8;;;9.4;;
49900;SDS011;35789;48.414;12.768;2022-10-19T04:40:00;13.8;;;9.4;;
49900;SDS011;35789;48.414;12.768;2022-10-19T04:45:00;13.8;;;9.4;;
49900;SDS011;35789;48.414;12.768;2022-10-19T04:50:00;13.8;;;9.4;;
49900;SDS011;35789;48.414;12.768;2022-10-19T04:55:00;18.5;;;10.5;;
49900;SDS011;35789;48.414;12.768;2022-10-19T05:00:00;18.5;;;10.5;;
49900;SDS011;35789;48.414;12.768;2022-10-19T05:05:00;18.5;;;10.5;;
49900;SDS011;35789;48.414;12.768;2022-10-19T05:10:00;18.5;;;10.5;;
49900;SDS011;35789;48.414;12.768;2022-10-19T05:15:00;18.5;;;10.5;;
49900;SDS011;35789;48.414;12.768;2022-10-19T05:20:00;18.5;;;10.5;;
49900;SDS011;35789;48.414;12.768;2022-10-19T05:25:00;43.9;;;14.8;;
49900;SDS011;35789;48.414;12.768;2022-10-19T05:35:00;43.9;;;14.8;;
49900;SDS011;35789;48.414;12.768;2022-10-19T05:40:00;43.9;;;14.8;;
49900;SDS011;35789;48.414;12.768;2022-10-19T05:45:00;43.9;;;14.8;;
49900;SDS011;35789;48.414;12.768;2022-10-19T05:50:01;41.0;;;19.2;;
49900;SDS011;35789;48.414;12.768;2022-10-19T05:55:00;41.0;;;19.2;;
49900;SDS011;35789;48.414;12.768;2022-10-19T06:00:00;41.0;;;19.2;;
49900;SDS011;35789;48.414;12.768;2022-10-19T06:05:00;41.0;;;19.2;;
49900;SDS011;35789;48.414;12.768;2022-10-19T06:10:00;41.0;;;19.2;;
49900;SDS011;35789;48.414;12.768;2022-10-19T06:15:00;41.0;;;19.2;;
49900;SDS011;35789;48.414;12.768;2022-10-19T06:20:00;34.3;;;17.0;;
49900;SDS011;35789;48.414;12.768;2022-10-19T06:30:00;34.3;;;17.0;;
49900;SDS011;35789;48.414;12.768;2022-10-19T06:35:00;34.3;;;17.0;;
49900;SDS011;35789;48.414;12.768;2022-10-19T06:40:00;34.3;;;17.0;;
49900;SDS011;35789;48.414;12.768;2022-10-19T06:45:00;34.3;;;17.0;;
49900;SDS011;35789;48.414;12.768;2022-10-19T06:50:00;27.4;;;13.7;;
49900;SDS011;35789;48.414;12.768;2022-10-19T06:55:00;27.4;;;13.7;;
49900;SDS011;35789;48.414;12.768;2022-10-19T07:00:00;27.4;;;13.7;;
49900;SDS011;35789;48.414;12.768;2022-10-19T07:05:00;27.4;;;13.7;;
49900;SDS011;35789;48.414;12.768;2022-10-19T07:10:00;27.4;;;13.7;;
49900;SDS011;35789;48.414;12.768;2022-10-19T07:15:00;27.4;;;13.7;;
49900;SDS011;35789;48.414;12.768;2022-10-19T07:20:00;26.6;;;14.5;;
49900;SDS011;35789;48.414;12.768;2022-10-19T07:25:00;26.6;;;14.5;;
49900;SDS011;35789;48.414;12.768;2022-10-19T07:30:00;26.6;;;14.5;;
49900;SDS011;35789;48.414;12.768;2022-10-19T07:35:00;26.6;;;14.5;;
49900;SDS011;35789;48.414;12.768;2022-10-19T07:40:00;26.6;;;14.5;;
49900;SDS011;35789;48.414;12.768;2022-10-19T07:45:00;26.6;;;14.5;;
49900;SDS011;35789;48.414;12.768;2022-10-19T07:50:00;24.0;;;12.1;;
49900;SDS011;35789;48.414;12.768;2022-10-19T07:55:00;24.0;;;12.1;;
49900;SDS011;35789;48.414;12.768;2022-10-19T08:00:00;24.0;;;12.1;;
49900;SDS011;35789;48.414;12.768;2022-10-19T08:05:00;24.0;;;12.1;;
49900;SDS011;35789;48.414;12.768;2022-10-19T08:10:00;24.0;;;12.1;;
49900;SDS011;35789;48.414;12.768;2022-10-19T08:15:00;24.0;;;12.1;;
49900;SDS011;35789;48.414;12.768;2022-10-19T08:20:00;16.1;;;9.8;;
49900;SDS011;35789;48.414;12.768;2022-10-19T08:25:00;16.1;;;9.8;;
49900;SDS011;35789;48.414;12.768;2022-10-19T08:30:00;16.1;;;9.8;;
49900;SDS011;35789;48.414;12.768;2022-10-19T08:35:00;16.1;;;9.8;;
49900;SDS011;35789;48.414;12.768;2022-10-19T08:40:00;16.1;;;9.8;;
49900;SDS011;35789;48.414;12.768;2022-10-19T08:45:13;16.1;;;9.8;;
49900;SDS011;35789;48.414;12.768;2022-10-19T08:50:00;18.3;;;11.9;;
49900;SDS011;35789;48.414;12.768;2022-10-19T08:55:01;18.3;;;11.9;;
49900;SDS011;35789;48.414;12.768;2022-10-19T09:00:05;18.3;;;11.9;;
49900;SDS011;35789;48.414;12.768;2022-10-19T09:05:04;18.3;;;11.9;;
49900;SDS011;35789;48.414;12.768;2022-10-19T09:10:03;18.3;;;11.9;;
49900;SDS011;35789;48.414;12.768;2022-10-19T09:15:02;18.3;;;11.9;;
49900;SDS011;35789;48.414;12.768;2022-10-19T09:20:15;18.9;;;13.6;;
49900;SDS011;35789;48.414;12.768;2022-10-19T09:25:02;18.9;;;13.6;;
49900;SDS011;35789;48.414;12.768;2022-10-19T09:30:02;18.9;;;13.6;;
49900;SDS011;35789;48.414;12.768;2022-10-19T09:35:02;18.9;;;13.6;;
49900;SDS011;35789;48.414;12.768;2022-10-19T09:40:00;18.9;;;13.6;;
49900;SDS011;35789;48.414;12.768;2022-10-19T09:45:05;18.9;;;13.6;;
49900;SDS011;35789;48.414;12.768;2022-10-19T09:50:15;20.3;;;14.0;;
49900;SDS011;35789;48.414;12.768;2022-10-19T09:55:02;20.3;;;14.0;;
49900;SDS011;35789;48.414;12.768;2022-10-19T10:00:00;20.3;;;14.0;;
49900;SDS011;35789;48.414;12.768;2022-10-19T10:05:05;20.3;;;14.0;;
49900;SDS011;35789;48.414;12.768;2022-10-19T10:10:00;20.3;;;14.0;;
49900;SDS011;35789;48.414;12.768;2022-10-19T10:15:02;20.3;;;14.0;;
49900;SDS011;35789;48.414;12.768;2022-10-19T10:20:04;17.8;;;11.8;;
49900;SDS011;35789;48.414;12.768;2022-10-19T10:25:01;17.8;;;11.8;;
49900;SDS011;35789;48.414;12.768;2022-10-19T10:30:05;17.8;;;11.8;;
49900;SDS011;35789;48.414;12.768;2022-10-19T10:35:02;17.8;;;11.8;;
49900;SDS011;35789;48.414;12.768;2022-10-19T10:40:00;17.8;;;11.8;;
49900;SDS011;35789;48.414;12.768;2022-10-19T10:45:00;17.8;;;11.8;;
49900;SDS011;35789;48.414;12.768;2022-10-19T10:50:03;15.1;;;11.3;;
49900;SDS011;35789;48.414;12.768;2022-10-19T10:55:02;15.1;;;11.3;;
49900;SDS011;35789;48.414;12.768;2022-10-19T11:00:04;15.1;;;11.3;;
49900;SDS011;35789;48.414;12.768;2022-10-19T11:05:05;unavailable;;;unavailable;;
49900;SDS011;35789;48.414;12.768;2022-10-19T11:10:04;15.1;;;11.3;;
49900;SDS011;35789;48.414;12.768;2022-10-19T11:20:00;13.1;;;9.0;;
49900;SDS011;35789;48.414;12.768;2022-10-19T11:25:14;13.1;;;9.0;;
49900;SDS011;35789;48.414;12.768;2022-10-19T11:30:08;13.1;;;9.0;;
49900;SDS011;35789;48.414;12.768;2022-10-19T11:35:13;13.1;;;9.0;;
49900;SDS011;35789;48.414;12.768;2022-10-19T11:40:07;13.1;;;9.0;;
49900;SDS011;35789;48.414;12.768;2022-10-19T11:45:08;13.1;;;9.0;;
49900;SDS011;35789;48.414;12.768;2022-10-19T11:50:11;11.5;;;8.3;;
49900;SDS011;35789;48.414;12.768;2022-10-19T11:55:07;11.5;;;8.3;;
49900;SDS011;35789;48.414;12.768;2022-10-19T12:00:04;11.5;;;8.3;;
49900;SDS011;35789;48.414;12.768;2022-10-19T12:05:03;11.5;;;8.3;;
49900;SDS011;35789;48.414;12.768;2022-10-19T12:10:06;11.5;;;8.3;;
49900;SDS011;35789;48.414;12.768;2022-10-19T12:15:16;11.5;;;8.3;;
49900;SDS011;35789;48.414;12.768;2022-10-19T12:20:03;10.5;;;6.8;;
49900;SDS011;35789;48.414;12.768;2022-10-19T12:25:00;10.5;;;6.8;;
49900;SDS011;35789;48.414;12.768;2022-10-19T12:30:04;10.5;;;6.8;;
49900;SDS011;35789;48.414;12.768;2022-10-19T12:35:07;10.5;;;6.8;;
49900;SDS011;35789;48.414;12.768;2022-10-19T12:40:04;10.5;;;6.8;;
49900;SDS011;35789;48.414;12.768;2022-10-19T12:45:10;10.5;;;6.8;;
49900;SDS011;35789;48.414;12.768;2022-10-19T12:50:00;8.5;;;5.0;;
49900;SDS011;35789;48.414;12.768;2022-10-19T12:55:10;8.5;;;5.0;;
49900;SDS011;35789;48.414;12.768;2022-10-19T13:00:03;8.5;;;5.0;;
49900;SDS011;35789;48.414;12.768;2022-10-19T13:05:00;8.5;;;5.0;;
49900;SDS011;35789;48.414;12.768;2022-10-19T13:10:02;8.5;;;5.0;;
49900;SDS011;35789;48.414;12.768;2022-10-19T13:15:02;8.5;;;5.0;;
49900;SDS011;35789;48.414;12.768;2022-10-19T13:25:17;15.2;;;8.7;;
49900;SDS011;35789;48.414;12.768;2022-10-19T13:30:00;15.2;;;8.7;;
49900;SDS011;35789;48.414;12.768;2022-10-19T13:40:00;15.2;;;8.7;;
49900;SDS011;35789;48.414;12.768;2022-10-19T13:45:00;15.2;;;8.7;;
49900;SDS011;35789;48.414;12.768;2022-10-19T13:50:16;7.6;;;4.3;;
49900;SDS011;35789;48.414;12.768;2022-10-19T13:55:17;7.6;;;4.3;;
49900;SDS011;35789;48.414;12.768;2022-10-19T14:00:04;7.6;;;4.3;;
49900;SDS011;35789;48.414;12.768;2022-10-19T14:05:09;7.6;;;4.3;;
49900;SDS011;35789;48.414;12.768;2022-10-19T14:10:06;7.6;;;4.3;;
49900;SDS011;35789;48.414;12.768;2022-10-19T14:15:11;7.6;;;4.3;;
49900;SDS011;35789;48.414;12.768;2022-10-19T14:20:00;8.7;;;4.3;;
49900;SDS011;35789;48.414;12.768;2022-10-19T14:25:03;8.7;;;4.3;;
49900;SDS011;35789;48.414;12.768;2022-10-19T14:30:00;8.7;;;4.3;;
49900;SDS011;35789;48.414;12.768;2022-10-19T14:35:03;8.7;;;4.3;;
49900;SDS011;35789;48.414;12.768;2022-10-19T14:40:03;8.7;;;4.3;;
49900;SDS011;35789;48.414;12.768;2022-10-19T14:45:00;8.7;;;4.3;;
49900;SDS011;35789;48.414;12.768;2022-10-19T14:50:01;5.7;;;3.3;;
49900;SDS011;35789;48.414;12.768;2022-10-19T14:55:05;5.7;;;3.3;;
49900;SDS011;35789;48.414;12.768;2022-10-19T15:00:02;5.7;;;3.3;;
49900;SDS011;35789;48.414;12.768;2022-10-19T15:05:03;5.7;;;3.3;;
49900;SDS011;35789;48.414;12.768;2022-10-19T15:10:03;5.7;;;3.3;;
49900;SDS011;35789;48.414;12.768;2022-10-19T15:15:00;5.7;;;3.3;;
49900;SDS011;35789;48.414;12.768;2022-10-19T15:20:00;6.3;;;3.7;;
49900;SDS011;35789;48.414;12.768;2022-10-19T15:25:01;6.3;;;3.7;;
49900;SDS011;35789;48.414;12.768;2022-10-19T15:30:03;6.3;;;3.7;;
49900;SDS011;35789;48.414;12.768;2022-10-19T15:35:07;6.3;;;3.7;;
49900;SDS011;35789;48.414;12.768;2022-10-19T15:40:09;6.3;;;3.7;;
49900;SDS011;35789;48.414;12.768;2022-10-19T15:45:00;6.3;;;3.7;;
49900;SDS011;35789;48.414;12.768;2022-10-19T15:50:01;7.7;;;4.7;;
49900;SDS011;35789;48.414;12.768;2022-10-19T15:55:00;7.7;;;4.7;;
49900;SDS011;35789;48.414;12.768;2022-10-19T16:00:05;7.7;;;4.7;;
49900;SDS011;35789;48.414;12.768;2022-10-19T16:05:00;7.7;;;4.7;;
49900;SDS011;35789;48.414;12.768;2022-10-19T16:10:00;7.7;;;4.7;;
49900;SDS011;35789;48.414;12.768;2022-10-19T16:15:00;7.7;;;4.7;;
49900;SDS011;35789;48.414;12.768;2022-10-19T16:20:00;6.9;;;4.2;;
49900;SDS011;35789;48.414;12.768;2022-10-19T16:25:03;6.9;;;4.2;;
49900;SDS011;35789;48.414;12.768;2022-10-19T16:30:00;6.9;;;4.2;;
49900;SDS011;35789;48.414;12.768;2022-10-19T16:35:00;6.9;;;4.2;;
49900;SDS011;35789;48.414;12.768;2022-10-19T16:40:00;6.9;;;4.2;;
49900;SDS011;35789;48.414;12.768;2022-10-19T16:45:00;6.9;;;4.2;;
49900;SDS011;35789;48.414;12.768;2022-10-19T16:50:01;11.4;;;5.2;;
49900;SDS011;35789;48.414;12.768;2022-10-19T16:55:00;11.4;;;5.2;;
49900;SDS011;35789;48.414;12.768;2022-10-19T17:00:00;11.4;;;5.2;;
49900;SDS011;35789;48.414;12.768;2022-10-19T17:05:00;11.4;;;5.2;;
49900;SDS011;35789;48.414;12.768;2022-10-19T17:10:00;11.4;;;5.2;;
49900;SDS011;35789;48.414;12.768;2022-10-19T17:15:00;11.4;;;5.2;;
49900;SDS011;35789;48.414;12.768;2022-10-19T17:20:00;9.4;;;4.4;;
49900;SDS011;35789;48.414;12.768;2022-10-19T17:25:00;9.4;;;4.4;;
49900;SDS011;35789;48.414;12.768;2022-10-19T17:30:00;9.4;;;4.4;;
49900;SDS011;35789;48.414;12.768;2022-10-19T17:35:00;9.4;;;4.4;;
49900;SDS011;35789;48.414;12.768;2022-10-19T17:40:00;9.4;;;4.4;;
49900;SDS011;35789;48.414;12.768;2022-10-19T17:45:00;9.4;;;4.4;;
49900;SDS011;35789;48.414;12.768;2022-10-19T17:50:00;9.8;;;5.2;;
49900;SDS011;35789;48.414;12.768;2022-10-19T17:55:00;9.8;;;5.2;;
49900;SDS011;35789;48.414;12.768;2022-10-19T18:00:00;9.8;;;5.2;;
49900;SDS011;35789;48.414;12.768;2022-10-19T18:05:00;9.8;;;5.2;;
49900;SDS011;35789;48.414;12.768;2022-10-19T18:10:00;9.8;;;5.2;;
49900;SDS011;35789;48.414;12.768;2022-10-19T18:15:00;9.8;;;5.2;;
49900;SDS011;35789;48.414;12.768;2022-10-19T18:20:00;9.2;;;5.0;;
49900;SDS011;35789;48.414;12.768;2022-10-19T18:25:00;9.2;;;5.0;;
49900;SDS011;35789;48.414;12.768;2022-10-19T18:30:00;9.2;;;5.0;;
49900;SDS011;35789;48.414;12.768;2022-10-19T18:35:00;9.2;;;5.0;;
49900;SDS011;35789;48.414;12.768;2022-10-19T18:40:00;9.2;;;5.0;;
49900;SDS011;35789;48.414;12.768;2022-10-19T18:45:00;9.2;;;5.0;;
49900;SDS011;35789;48.414;12.768;2022-10-19T18:50:00;11.6;;;5.8;;
49900;SDS011;35789;48.414;12.768;2022-10-19T18:55:00;11.6;;;5.8;;
49900;SDS011;35789;48.414;12.768;2022-10-19T19:00:00;11.6;;;5.8;;
49900;SDS011;35789;48.414;12.768;2022-10-19T19:05:00;11.6;;;5.8;;
49900;SDS011;35789;48.414;12.768;2022-10-19T19:10:00;11.6;;;5.8;;
49900;SDS011;35789;48.414;12.768;2022-10-19T19:15:00;11.6;;;5.8;;
49900;SDS011;35789;48.414;12.768;2022-10-19T19:20:00;13.5;;;6.2;;
49900;SDS011;35789;48.414;12.768;2022-10-19T19:25:00;13.5;;;6.2;;
49900;SDS011;35789;48.414;12.768;2022-10-19T19:30:00;13.5;;;6.2;;
49900;SDS011;35789;48.414;12.768;2022-10-19T19:35:00;13.5;;;6.2;;
49900;SDS011;35789;48.414;12.768;2022-10-19T19:40:00;13.5;;;6.2;;
49900;SDS011;35789;48.414;12.768;2022-10-19T19:45:00;13.5;;;6.2;;
49900;SDS011;35789;48.414;12.768;2022-10-19T19:50:00;12.3;;;6.2;;
49900;SDS011;35789;48.414;12.768;2022-10-19T19:55:00;12.3;;;6.2;;
49900;SDS011;35789;48.414;12.768;2022-10-19T20:00:00;12.3;;;6.2;;
49900;SDS011;35789;48.414;12.768;2022-10-19T20:05:00;12.3;;;6.2;;
49900;SDS011;35789;48.414;12.768;2022-10-19T20:10:00;12.3;;;6.2;;
49900;SDS011;35789;48.414;12.768;2022-10-19T20:15:00;12.3;;;6.2;;
49900;SDS011;35789;48.414;12.768;2022-10-19T20:20:00;15.1;;;7.8;;
49900;SDS011;35789;48.414;12.768;2022-10-19T20:25:00;15.1;;;7.8;;
49900;SDS011;35789;48.414;12.768;2022-10-19T20:30:00;15.1;;;7.8;;
49900;SDS011;35789;48.414;12.768;2022-10-19T20:35:00;15.1;;;7.8;;
49900;SDS011;35789;48.414;12.768;2022-10-19T20:40:00;15.1;;;7.8;;
49900;SDS011;35789;48.414;12.768;2022-10-19T20:45:00;15.1;;;7.8;;
49900;SDS011;35789;48.414;12.768;2022-10-19T20:50:00;16.9;;;11.3;;
49900;SDS011;35789;48.414;12.768;2022-10-19T20:55:00;16.9;;;11.3;;
49900;SDS011;35789;48.414;12.768;2022-10-19T21:00:00;16.9;;;11.3;;
49900;SDS011;35789;48.414;12.768;2022-10-19T21:05:00;16.9;;;11.3;;
49900;SDS011;35789;48.414;12.768;2022-10-19T21:10:00;16.9;;;11.3;;
49900;SDS011;35789;48.414;12.768;2022-10-19T21:15:00;16.9;;;11.3;;
49900;SDS011;35789;48.414;12.768;2022-10-19T21:20:00;17.8;;;10.4;;
49900;SDS011;35789;48.414;12.768;2022-10-19T21:25:00;17.8;;;10.4;;
49900;SDS011;35789;48.414;12.768;2022-10-19T21:30:00;17.8;;;10.4;;
49900;SDS011;35789;48.414;12.768;2022-10-19T21:35:00;17.8;;;10.4;;
49900;SDS011;35789;48.414;12.768;2022-10-19T21:40:00;17.8;;;10.4;;
49900;SDS011;35789;48.414;12.768;2022-10-19T21:45:00;17.8;;;10.4;;
49900;SDS011;35789;48.414;12.768;2022-10-19T21:50:00;21.5;;;13.0;;
49900;SDS011;35789;48.414;12.768;2022-10-19T21:55:00;21.5;;;13.0;;
49900;SDS011;35789;48.414;12.768;2022-10-19T22:00:00;21.5;;;13.0;;
49900;SDS011;35789;48.414;12.768;2022-10-19T22:05:00;21.5;;;13.0;;
49900;SDS011;35789;48.414;12.768;2022-10-19T22:10:00;21.5;;;13.0;;
49900;SDS011;35789;48.414;12.768;2022-10-19T22:15:00;21.5;;;13.0;;
49900;SDS011;35789;48.414;12.768;2022-10-19T22:20:00;19.9;;;13.6;;
49900;SDS011;35789;48.414;12.768;2022-10-19T22:25:00;19.9;;;13.6;;
49900;SDS011;35789;48.414;12.768;2022-10-19T22:30:00;19.9;;;13.6;;
49900;SDS011;35789;48.414;12.768;2022-10-19T22:35:00;19.9;;;13.6;;
49900;SDS011;35789;48.414;12.768;2022-10-19T22:40:00;19.9;;;13.6;;
49900;SDS011;35789;48.414;12.768;2022-10-19T22:45:00;19.9;;;13.6;;
49900;SDS011;35789;48.414;12.768;2022-10-19T22:50:00;23.1;;;14.2;;
49900;SDS011;35789;48.414;12.768;2022-10-19T22:55:00;23.1;;;14.2;;
49900;SDS011;35789;48.414;12.768;2022-10-19T23:00:00;23.1;;;14.2;;
49900;SDS011;35789;48.414;12.768;2022-10-19T23:05:00;23.1;;;14.2;;
49900;SDS011;35789;48.414;12.768;2022-10-19T23:10:00;23.1;;;14.2;;
49900;SDS011;35789;48.414;12.768;2022-10-19T23:15:00;23.1;;;14.2;;
49900;SDS011;35789;48.414;12.768;2022-10-19T23:20:00;24.1;;;15.1;;
49900;SDS011;35789;48.414;12.768;2022-10-19T23:25:00;24.1;;;15.1;;
49900;SDS011;35789;48.414;12.768;2022-10-19T23:30:01;24.1;;;15.1;;
49900;SDS011;35789;48.414;12.768;2022-10-19T23:35:00;24.1;;;15.1;;
49900;SDS011;35789;48.414;12.768;2022-10-19T23:40:00;24.1;;;15.1;;
49900;SDS011;35789;48.414;12.768;2022-10-19T23:45:00;24.1;;;15.1;;
49900;SDS011;35789;48.414;12.768;2022-10-19T23:50:00;27.9;;;16.1;;
49900;SDS011;35789;48.414;12.768;2022-10-19T23:55:00;27.9;;;16.1;;
